Srodmiescie, Poland

7:34 PM CET on February 25, 2017 (GMT +0100)
Marszałkowska | | Change Station

Elev 0 ft 52.23 °N, 21.01 °E | Updated 2 minutes ago

Clear
Clear
29.1 °F
Feels Like 29 °F
N
0.0
Wind Variable Wind from North
Gusts 0.6 mph

Today
High -- | Low -- °F
--% Chance of Precip.
Yesterday
High -- | Low -- °F
Precip. -- in
Pressure 30.09 in
Visibility 6.2 miles
Clouds Few 3600 ft
Windchill 29 °F
Dew Point 22 °F
Humidity 75%
Rainfall Not available.
Snow Depth Not available.
6:30 AM 5:08 PM
Waning Crescent, 1% visible
METAR EPWA 251830Z 23004KT 9999 FEW036 M00/M04 Q1019 R33/2///95 NOSIG
Pressure 30.09 in
Visibility 6.2 miles
Clouds Few 3600 ft
Windchill 29 °F
Dew Point 22 °F
Humidity 75%
Rainfall Not available.
Snow Depth Not available.
6:30 AM 5:08 PM
Waning Crescent, 1% visible
METAR EPWA 251830Z 23004KT 9999 FEW036 M00/M04 Q1019 R33/2///95 NOSIG

Get Your Daily Forecast Email!

Thanks for signing up!

Be on the lookout for a verification email in your inbox.

You'll start receiving the daily forecast at 8 AM.

×

10-Day Weather Forecast

×

Almanac

Astronomy

Feb. 25, 2017 Rise Set
Actual Time
Civil Twilight
Nautical Twilight
Astronomical Twilight
Moon
Length of Visible Light
Length of Day
Tomorrow will be .
, % of the Moon is Illuminated

Today's Extremes

Country Highs Country Lows

Community

WunderPhotos

Upload Photos

1,962,540 photos uploaded!

WunderBlog® & News

Nearby

Air Quality

  Air Quality AQ Index Pollutant
Not available.

Snow Depth

Station Depth Elevation

Earthquake Activity

City Distance Mag. Time & Date
Minimum magnitude displayed is 2.5.

Coastal Water Temperatures

Place Temperature

Stations

Nearby Weather Stations

Station Location Temp. Windchill Dew Point Humidity Wind Precip. Elev Updated Type